Time;durP1;ratioP1;P1;durP2;ratioP2;P2;SDS_P1;SDS_P2;PMS_P1;PMS_P2;Temp;Humidity;BMP_temperature;BMP_pressure;BME280_temperature;BME280_humidity;BME280_pressure;Samples;Min_cycle;Max_cycle;Signal;HPM_P1;HPM_P2
2021/05/03 00:02:04;;;;;;;12.33;8.60;;;;;;;;;;5032393;28;20934;-73
2021/05/03 00:04:30;;;;;;;12.43;8.73;;;;;;;;;;5043225;28;20429;-73
2021/05/03 00:06:56;;;;;;;11.30;9.00;;;;;;;;;;5052492;28;20847;-73
2021/05/03 00:09:22;;;;;;;10.00;8.30;;;;;;;;;;5034131;28;20434;-73
2021/05/03 00:11:48;;;;;;;10.00;8.87;;;;;;;;;;5052629;28;20525;-73
2021/05/03 00:14:14;;;;;;;8.73;7.53;;;;;;;;;;5050676;28;20457;-73
2021/05/03 00:16:40;;;;;;;10.53;8.43;;;;;;;;;;5051268;28;20882;-73
2021/05/03 00:19:07;;;;;;;10.13;7.73;;;;;;;;;;5051326;28;20913;-73
2021/05/03 00:21:33;;;;;;;10.83;8.40;;;;;;;;;;5052298;28;20454;-72
2021/05/03 00:23:59;;;;;;;10.17;8.00;;;;;;;;;;5033139;28;20504;-73
2021/05/03 00:26:25;;;;;;;11.10;8.67;;;;;;;;;;5052191;28;20412;-73
2021/05/03 00:28:51;;;;;;;9.70;8.67;;;;;;;;;;5051155;28;20435;-73
2021/05/03 00:31:17;;;;;;;9.90;7.97;;;;;;;;;;5052252;28;20404;-73
2021/05/03 00:33:43;;;;;;;11.73;8.20;;;;;;;;;;5046420;28;20535;-73
2021/05/03 00:36:09;;;;;;;11.00;8.73;;;;;;;;;;5032059;28;20461;-72
2021/05/03 00:38:35;;;;;;;10.57;7.90;;;;;;;;;;5035512;28;20799;-73
2021/05/03 00:41:02;;;;;;;10.10;8.77;;;;;;;;;;5051800;28;20484;-73
2021/05/03 00:43:28;;;;;;;10.07;8.57;;;;;;;;;;5054011;28;20533;-72
2021/05/03 00:45:54;;;;;;;8.97;7.90;;;;;;;;;;5038189;28;20406;-72
2021/05/03 00:48:21;;;;;;;9.63;7.73;;;;;;;;;;5037062;28;20429;-72
2021/05/03 00:50:47;;;;;;;9.50;8.07;;;;;;;;;;5056300;28;20881;-72
2021/05/03 00:53:13;;;;;;;7.60;6.30;;;;;;;;;;5054822;28;20425;-72
2021/05/03 00:55:39;;;;;;;11.40;8.33;;;;;;;;;;5055620;28;20414;-72
2021/05/03 00:58:06;;;;;;;9.83;7.77;;;;;;;;;;5056041;28;20434;-72
2021/05/03 01:00:32;;;;;;;9.63;7.53;;;;;;;;;;5054661;28;20455;-72
2021/05/03 01:02:59;;;;;;;10.93;8.47;;;;;;;;;;5055926;28;20424;-72
2021/05/03 01:05:29;;;;;;;9.00;7.33;;;;;;;;;;5019552;28;20438;-72
2021/05/03 01:07:58;;;;;;;10.33;8.77;;;;;;;;;;5035578;28;20411;-72
2021/05/03 01:10:24;;;;;;;10.90;9.20;;;;;;;;;;5035500;28;20426;-72
2021/05/03 01:12:52;;;;;;;10.20;7.13;;;;;;;;;;5035464;28;20526;-72
2021/05/03 01:15:23;;;;;;;9.50;8.47;;;;;;;;;;5033571;28;20559;-72
2021/05/03 01:17:59;;;;;;;10.87;8.87;;;;;;;;;;5054537;28;20875;-72
2021/05/03 01:20:26;;;;;;;12.00;9.33;;;;;;;;;;5037643;28;20427;-72
2021/05/03 01:22:56;;;;;;;10.87;8.07;;;;;;;;;;5035378;28;20445;-72
2021/05/03 01:25:22;;;;;;;10.83;8.80;;;;;;;;;;5033380;28;20440;-71
2021/05/03 01:27:48;;;;;;;10.27;8.63;;;;;;;;;;5037289;28;20593;-71
2021/05/03 01:30:15;;;;;;;13.53;9.60;;;;;;;;;;5054190;28;20426;-71
2021/05/03 01:32:41;;;;;;;14.57;9.87;;;;;;;;;;5055144;28;20800;-71
2021/05/03 01:35:07;;;;;;;13.83;9.97;;;;;;;;;;5051391;28;20458;-72
2021/05/03 01:37:33;;;;;;;15.57;9.93;;;;;;;;;;5055442;28;20403;-72
2021/05/03 01:40:00;;;;;;;14.37;10.87;;;;;;;;;;5053890;28;20427;-72
2021/05/03 01:42:26;;;;;;;21.17;10.60;;;;;;;;;;5054048;28;20973;-72
2021/05/03 01:44:57;;;;;;;15.23;10.47;;;;;;;;;;5053957;28;20419;-72
2021/05/03 01:47:23;;;;;;;14.77;10.90;;;;;;;;;;5055096;28;20474;-72
2021/05/03 01:49:49;;;;;;;16.00;11.43;;;;;;;;;;5053610;28;20453;-72
2021/05/03 01:52:15;;;;;;;15.47;11.73;;;;;;;;;;5054773;28;20402;-72
2021/05/03 01:54:41;;;;;;;15.00;11.10;;;;;;;;;;5053391;28;20429;-72
2021/05/03 01:57:07;;;;;;;13.67;10.47;;;;;;;;;;5055238;28;20870;-72
2021/05/03 01:59:34;;;;;;;16.80;11.97;;;;;;;;;;5050465;28;20434;-72
2021/05/03 02:02:01;;;;;;;16.50;12.47;;;;;;;;;;5037872;28;20555;-72
2021/05/03 02:04:27;;;;;;;15.60;11.80;;;;;;;;;;5035867;28;20507;-71
2021/05/03 02:06:53;;;;;;;18.30;11.73;;;;;;;;;;5054606;28;20414;-72
2021/05/03 02:09:20;;;;;;;16.77;11.30;;;;;;;;;;5052417;28;20442;-71
2021/05/03 02:11:46;;;;;;;13.90;10.97;;;;;;;;;;5034890;28;20445;-72
2021/05/03 02:14:12;;;;;;;16.83;11.63;;;;;;;;;;5034541;28;20421;-72
2021/05/03 02:16:38;;;;;;;18.87;12.33;;;;;;;;;;5034459;28;20415;-72
2021/05/03 02:19:04;;;;;;;15.57;11.17;;;;;;;;;;5049715;28;20437;-72
2021/05/03 02:21:31;;;;;;;13.70;11.30;;;;;;;;;;5053186;28;20504;-72
2021/05/03 02:23:57;;;;;;;16.90;11.77;;;;;;;;;;5054285;28;20432;-72
2021/05/03 02:26:23;;;;;;;14.13;11.50;;;;;;;;;;5053222;28;20421;-72
2021/05/03 02:28:52;;;;;;;16.67;11.23;;;;;;;;;;5036303;28;20810;-72
2021/05/03 02:31:18;;;;;;;16.00;11.83;;;;;;;;;;5035511;28;20504;-72
2021/05/03 02:33:44;;;;;;;15.73;10.37;;;;;;;;;;5054340;28;20442;-71
2021/05/03 02:36:10;;;;;;;16.17;11.50;;;;;;;;;;5052806;28;20977;-71
2021/05/03 02:38:36;;;;;;;13.20;11.07;;;;;;;;;;5054255;28;20432;-72
2021/05/03 02:41:03;;;;;;;16.27;11.83;;;;;;;;;;5052726;28;20488;-72
2021/05/03 02:43:29;;;;;;;15.87;12.10;;;;;;;;;;5053745;28;20980;-71
2021/05/03 02:45:55;;;;;;;17.80;12.00;;;;;;;;;;5052917;28;20422;-72
2021/05/03 02:48:21;;;;;;;16.53;11.87;;;;;;;;;;5049803;28;20438;-72
2021/05/03 02:50:47;;;;;;;12.90;10.03;;;;;;;;;;5033654;28;20430;-72
2021/05/03 02:53:13;;;;;;;14.33;10.80;;;;;;;;;;5033716;28;20824;-72
2021/05/03 02:55:39;;;;;;;16.13;12.10;;;;;;;;;;5043724;28;20430;-72
2021/05/03 02:58:05;;;;;;;14.63;10.40;;;;;;;;;;5053484;28;20911;-72
2021/05/03 03:00:33;;;;;;;15.40;12.00;;;;;;;;;;5051414;28;20434;-71
2021/05/03 03:02:59;;;;;;;15.23;11.30;;;;;;;;;;5052686;28;20437;-72
2021/05/03 03:05:25;;;;;;;14.97;11.30;;;;;;;;;;5051912;28;20609;-72
2021/05/03 03:07:52;;;;;;;17.43;11.80;;;;;;;;;;5053400;28;20400;-71
2021/05/03 03:10:18;;;;;;;16.00;11.00;;;;;;;;;;5052533;28;20486;-71
2021/05/03 03:12:45;;;;;;;16.03;11.30;;;;;;;;;;5053263;28;20505;-72
2021/05/03 03:15:12;;;;;;;16.20;12.47;;;;;;;;;;5052248;28;20480;-71
2021/05/03 03:17:38;;;;;;;15.50;11.67;;;;;;;;;;5053196;28;20398;-72
2021/05/03 03:20:05;;;;;;;15.13;11.53;;;;;;;;;;5049915;28;20426;-72
2021/05/03 03:22:33;;;;;;;14.03;10.90;;;;;;;;;;5033213;28;20799;-71
2021/05/03 03:24:59;;;;;;;17.83;12.13;;;;;;;;;;5031117;28;20517;-72
2021/05/03 03:27:25;;;;;;;16.20;12.20;;;;;;;;;;5052937;28;20480;-71
2021/05/03 03:29:51;;;;;;;17.33;12.33;;;;;;;;;;5051905;28;20442;-72
2021/05/03 03:32:17;;;;;;;22.73;11.77;;;;;;;;;;5052789;28;20829;-72
2021/05/03 03:34:43;;;;;;;14.70;10.87;;;;;;;;;;5051822;28;20766;-72
2021/05/03 03:37:09;;;;;;;18.30;12.17;;;;;;;;;;5030655;28;20490;-72
2021/05/03 03:39:35;;;;;;;15.40;10.60;;;;;;;;;;5015776;28;20436;-72
2021/05/03 03:42:01;;;;;;;15.60;11.10;;;;;;;;;;5048494;28;20459;-71
2021/05/03 03:44:27;;;;;;;17.07;10.57;;;;;;;;;;5053056;28;20422;-72
2021/05/03 03:46:54;;;;;;;14.47;10.93;;;;;;;;;;5051629;28;20424;-71
2021/05/03 03:49:20;;;;;;;16.27;11.27;;;;;;;;;;5052866;28;20855;-72
2021/05/03 03:51:46;;;;;;;15.40;10.40;;;;;;;;;;5039913;28;20472;-72
2021/05/03 03:54:12;;;;;;;17.20;11.33;;;;;;;;;;5032561;28;20429;-72
2021/05/03 03:56:38;;;;;;;15.50;10.40;;;;;;;;;;5042831;28;20460;-72
2021/05/03 03:59:07;;;;;;;13.90;11.13;;;;;;;;;;5053030;28;20411;-71
2021/05/03 04:01:36;;;;;;;16.70;10.60;;;;;;;;;;5042247;28;20461;-72
2021/05/03 04:04:03;;;;;;;16.73;11.53;;;;;;;;;;5033211;28;20853;-71
2021/05/03 04:09:12;;;;;;;17.63;10.60;;;;;;;;;;5050400;28;20473;-71
2021/05/03 04:25:30;;;;;;;15.43;11.07;;;;;;;;;;5053267;28;20555;-72
2021/05/03 04:27:56;;;;;;;11.47;8.30;;;;;;;;;;5052857;28;20386;-72
2021/05/03 04:30:22;;;;;;;19.20;12.63;;;;;;;;;;5052750;28;20386;-72
2021/05/03 04:32:48;;;;;;;15.90;12.20;;;;;;;;;;5037721;28;20808;-72
2021/05/03 04:35:14;;;;;;;20.30;10.97;;;;;;;;;;5056629;23;20425;-67
2021/05/03 04:37:40;;;;;;;14.77;11.40;;;;;;;;;;5051679;28;20417;-68
2021/05/03 04:40:06;;;;;;;16.97;13.10;;;;;;;;;;5051576;28;20397;-69
2021/05/03 04:42:32;;;;;;;16.27;11.90;;;;;;;;;;5034370;28;20460;-66
2021/05/03 04:44:58;;;;;;;18.90;13.53;;;;;;;;;;5032562;28;20395;-66
2021/05/03 04:47:25;;;;;;;16.30;11.27;;;;;;;;;;5050372;28;20473;-66
2021/05/03 04:49:51;;;;;;;16.90;12.00;;;;;;;;;;5052756;28;20412;-66
2021/05/03 04:52:17;;;;;;;16.83;11.60;;;;;;;;;;5051640;28;20421;-67
2021/05/03 04:54:43;;;;;;;17.20;12.67;;;;;;;;;;5052329;28;20494;-67
2021/05/03 04:57:09;;;;;;;15.77;11.20;;;;;;;;;;5051375;28;20449;-67
2021/05/03 04:59:35;;;;;;;15.17;11.97;;;;;;;;;;5052267;28;20413;-67
2021/05/03 05:02:01;;;;;;;15.33;11.20;;;;;;;;;;5036779;28;20484;-67
2021/05/03 05:04:27;;;;;;;15.07;11.30;;;;;;;;;;5040296;28;20780;-67
2021/05/03 05:06:56;;;;;;;16.13;12.07;;;;;;;;;;5054925;28;21014;-67
2021/05/03 05:09:22;;;;;;;16.00;11.13;;;;;;;;;;5055804;28;20408;-67
2021/05/03 05:11:48;;;;;;;20.60;11.87;;;;;;;;;;5054366;28;20426;-67
2021/05/03 05:14:14;;;;;;;17.30;12.20;;;;;;;;;;5054347;28;20418;-67
2021/05/03 05:16:40;;;;;;;14.17;11.00;;;;;;;;;;5052432;28;20477;-68
2021/05/03 05:19:06;;;;;;;13.53;10.80;;;;;;;;;;5053296;28;20512;-67
2021/05/03 05:21:35;;;;;;;14.13;10.53;;;;;;;;;;5052037;28;20887;-67
2021/05/03 05:24:01;;;;;;;19.33;11.80;;;;;;;;;;5053572;28;20459;-67
2021/05/03 05:26:27;;;;;;;13.00;9.43;;;;;;;;;;5052390;28;20444;-66
2021/05/03 05:28:53;;;;;;;13.70;10.07;;;;;;;;;;5054397;28;20410;-67
2021/05/03 05:31:19;;;;;;;15.00;11.00;;;;;;;;;;5050604;28;20430;-66
2021/05/03 05:33:45;;;;;;;18.60;10.53;;;;;;;;;;5035528;28;20483;-67
2021/05/03 05:36:11;;;;;;;13.83;10.53;;;;;;;;;;5035724;28;20493;-68
2021/05/03 05:38:38;;;;;;;14.70;10.80;;;;;;;;;;5054227;28;20426;-67
2021/05/03 05:41:04;;;;;;;13.47;10.20;;;;;;;;;;5053510;28;20462;-68
2021/05/03 05:43:30;;;;;;;14.60;9.60;;;;;;;;;;5055313;28;20442;-67
2021/05/03 05:45:56;;;;;;;12.37;10.27;;;;;;;;;;5055274;28;20432;-66
2021/05/03 05:48:22;;;;;;;12.43;10.10;;;;;;;;;;5054241;28;20487;-66
2021/05/03 05:50:48;;;;;;;14.70;10.20;;;;;;;;;;5055634;28;20467;-67
2021/05/03 05:53:15;;;;;;;13.20;9.53;;;;;;;;;;5054082;28;20923;-68
2021/05/03 05:55:41;;;;;;;13.60;10.47;;;;;;;;;;5053467;28;20457;-67
2021/05/03 05:58:07;;;;;;;13.53;9.77;;;;;;;;;;5054148;28;20923;-67
2021/05/03 06:00:33;;;;;;;12.90;9.63;;;;;;;;;;5055196;28;20869;-67
2021/05/03 06:02:59;;;;;;;13.87;10.27;;;;;;;;;;5036388;28;20532;-67
2021/05/03 06:05:26;;;;;;;12.77;9.77;;;;;;;;;;5054861;28;20409;-67
2021/05/03 06:07:52;;;;;;;13.73;9.50;;;;;;;;;;5053951;28;20891;-67
2021/05/03 06:10:18;;;;;;;12.73;9.43;;;;;;;;;;5054000;28;20463;-67
2021/05/03 06:12:44;;;;;;;12.33;9.10;;;;;;;;;;5054092;28;20850;-67
2021/05/03 06:15:10;;;;;;;13.43;9.53;;;;;;;;;;5054755;28;20482;-67
2021/05/03 06:17:36;;;;;;;14.83;10.07;;;;;;;;;;5053913;28;20778;-67
2021/05/03 06:20:03;;;;;;;13.20;9.40;;;;;;;;;;5054979;28;20411;-68
2021/05/03 06:22:31;;;;;;;13.30;8.27;;;;;;;;;;5053414;28;20535;-67
2021/05/03 06:24:59;;;;;;;15.70;10.07;;;;;;;;;;5054769;28;20498;-66
2021/05/03 06:27:25;;;;;;;15.60;10.60;;;;;;;;;;5053484;28;20535;-67
2021/05/03 06:29:51;;;;;;;13.67;9.90;;;;;;;;;;5036778;28;20921;-67
2021/05/03 06:32:17;;;;;;;12.27;9.57;;;;;;;;;;5025227;28;20436;-67
2021/05/03 06:34:43;;;;;;;14.40;10.40;;;;;;;;;;5054561;28;20409;-67
2021/05/03 06:37:09;;;;;;;11.97;9.80;;;;;;;;;;5053011;28;20458;-67
2021/05/03 06:39:37;;;;;;;12.00;9.47;;;;;;;;;;5053301;28;20406;-67
2021/05/03 06:42:03;;;;;;;17.97;10.93;;;;;;;;;;5052801;28;20761;-67
2021/05/03 06:44:29;;;;;;;11.57;9.30;;;;;;;;;;5054012;28;20496;-67
2021/05/03 06:46:58;;;;;;;16.07;10.90;;;;;;;;;;5052875;28;20434;-68
2021/05/03 06:49:24;;;;;;;12.40;10.80;;;;;;;;;;5053721;28;20425;-67
2021/05/03 06:51:50;;;;;;;13.37;9.57;;;;;;;;;;5052681;28;20910;-68
2021/05/03 06:54:16;;;;;;;13.93;9.13;;;;;;;;;;5054024;28;20398;-67
2021/05/03 06:56:42;;;;;;;14.10;9.50;;;;;;;;;;5050691;28;20477;-67
2021/05/03 06:59:08;;;;;;;10.57;8.23;;;;;;;;;;5044992;28;20441;-68
2021/05/03 07:01:34;;;;;;;10.57;8.87;;;;;;;;;;5028570;28;20537;-68
2021/05/03 07:04:01;;;;;;;10.20;8.40;;;;;;;;;;5047377;28;20458;-68
2021/05/03 07:06:27;;;;;;;12.47;8.10;;;;;;;;;;5051198;28;20515;-68
2021/05/03 07:08:53;;;;;;;11.80;9.13;;;;;;;;;;5053030;28;20409;-67
2021/05/03 07:11:21;;;;;;;12.93;9.57;;;;;;;;;;5049254;28;20929;-68
2021/05/03 07:13:48;;;;;;;13.77;8.80;;;;;;;;;;5051224;28;20461;-68
2021/05/03 07:16:14;;;;;;;11.57;8.50;;;;;;;;;;5050361;28;20494;-68
2021/05/03 07:18:40;;;;;;;11.20;7.83;;;;;;;;;;5049741;28;20496;-68
2021/05/03 07:21:06;;;;;;;12.93;8.37;;;;;;;;;;5049524;28;20445;-67
2021/05/03 07:23:32;;;;;;;13.33;8.87;;;;;;;;;;5045246;28;20434;-67
2021/05/03 07:25:59;;;;;;;10.77;8.13;;;;;;;;;;5042543;28;20434;-67
2021/05/03 07:28:25;;;;;;;11.50;8.63;;;;;;;;;;5050539;28;20443;-67
2021/05/03 07:30:57;;;;;;;9.73;8.07;;;;;;;;;;5052523;28;20410;-70
2021/05/03 07:33:23;;;;;;;8.90;6.57;;;;;;;;;;5050968;28;20451;-68
2021/05/03 07:35:50;;;;;;;10.80;7.70;;;;;;;;;;5041394;28;20984;-68
2021/05/03 07:38:16;;;;;;;11.40;7.67;;;;;;;;;;5041765;28;20512;-72
2021/05/03 07:40:42;;;;;;;8.23;6.53;;;;;;;;;;5046417;28;20408;-72
2021/05/03 07:43:08;;;;;;;10.50;7.83;;;;;;;;;;5045736;28;20950;-70
2021/05/03 07:45:34;;;;;;;9.27;6.93;;;;;;;;;;5047742;28;20439;-72
2021/05/03 07:48:00;;;;;;;10.60;7.23;;;;;;;;;;5030178;28;20435;-72
2021/05/03 07:50:26;;;;;;;11.40;7.47;;;;;;;;;;5051158;28;20433;-70
2021/05/03 07:52:54;;;;;;;9.00;6.90;;;;;;;;;;5043917;28;20884;-69
2021/05/03 07:55:21;;;;;;;9.57;6.63;;;;;;;;;;5052067;28;20507;-66
2021/05/03 07:57:47;;;;;;;9.67;6.27;;;;;;;;;;5051102;28;20427;-69
2021/05/03 08:00:13;;;;;;;7.60;6.10;;;;;;;;;;5051363;28;20970;-67
2021/05/03 08:02:40;;;;;;;7.83;6.33;;;;;;;;;;5052306;28;20856;-66
2021/05/03 08:05:06;;;;;;;9.13;7.40;;;;;;;;;;5051894;28;20438;-67
2021/05/03 08:07:32;;;;;;;8.97;7.27;;;;;;;;;;5049516;28;20171;-66
2021/05/03 08:09:59;;;;;;;9.40;7.70;;;;;;;;;;5050110;28;20451;-68
2021/05/03 08:12:25;;;;;;;9.40;5.80;;;;;;;;;;5058761;28;20424;-67
2021/05/03 08:14:52;;;;;;;12.27;6.63;;;;;;;;;;5037551;28;20942;-68
2021/05/03 08:17:19;;;;;;;9.77;6.37;;;;;;;;;;5050266;28;20450;-68
2021/05/03 08:19:46;;;;;;;8.80;6.17;;;;;;;;;;5047437;28;20919;-68
2021/05/03 08:22:12;;;;;;;8.27;5.97;;;;;;;;;;5049802;28;20459;-68
2021/05/03 08:24:38;;;;;;;7.30;5.00;;;;;;;;;;5051596;28;20755;-67
2021/05/03 08:27:06;;;;;;;7.97;5.70;;;;;;;;;;5048963;28;20561;-68
2021/05/03 08:29:32;;;;;;;8.90;6.27;;;;;;;;;;5042617;28;20865;-67
2021/05/03 08:31:59;;;;;;;8.23;5.87;;;;;;;;;;5044687;28;20429;-67
2021/05/03 08:34:25;;;;;;;9.10;7.00;;;;;;;;;;5051475;28;20440;-67
2021/05/03 08:36:54;;;;;;;10.53;6.10;;;;;;;;;;5050797;28;20557;-68
2021/05/03 08:39:21;;;;;;;14.03;6.30;;;;;;;;;;5042800;28;20421;-69
2021/05/03 08:41:47;;;;;;;7.40;6.00;;;;;;;;;;5053378;28;20461;-69
2021/05/03 08:44:13;;;;;;;8.20;5.90;;;;;;;;;;5048702;28;20416;-69
2021/05/03 08:46:44;;;;;;;9.90;5.93;;;;;;;;;;5049065;28;20437;-66
2021/05/03 08:51:51;;;;;;;8.17;6.53;;;;;;;;;;5050104;28;20413;-69
2021/05/03 08:54:36;;;;;;;11.23;7.50;;;;;;;;;;5050445;28;20516;-68
2021/05/03 08:57:05;;;;;;;10.50;7.87;;;;;;;;;;5049248;28;20542;-68
2021/05/03 08:59:35;;;;;;;9.37;6.70;;;;;;;;;;5051107;28;20490;-67
2021/05/03 09:02:01;;;;;;;7.10;5.90;;;;;;;;;;5030124;28;20470;-68
2021/05/03 09:04:27;;;;;;;8.60;6.20;;;;;;;;;;5049552;28;20934;-68
2021/05/03 09:07:00;;;;;;;9.07;6.10;;;;;;;;;;5054424;28;20445;-68
2021/05/03 09:09:35;;;;;;;7.00;5.17;;;;;;;;;;5055626;28;20506;-68
2021/05/03 09:12:12;;;;;;;11.10;4.83;;;;;;;;;;5055183;28;20408;-68
2021/05/03 09:14:47;;;;;;;6.63;4.80;;;;;;;;;;5056477;28;20425;-68
2021/05/03 09:17:30;;;;;;;7.17;4.90;;;;;;;;;;5058415;28;20443;-68
2021/05/03 09:19:57;;;;;;;6.93;5.20;;;;;;;;;;5051651;28;20426;-67
2021/05/03 09:22:30;;;;;;;8.10;4.63;;;;;;;;;;5058792;28;20464;-68
2021/05/03 09:25:13;;;;;;;6.23;4.20;;;;;;;;;;5057946;28;20427;-67
2021/05/03 09:27:40;;;;;;;5.30;4.30;;;;;;;;;;5059640;28;20490;-68
2021/05/03 09:30:07;;;;;;;7.33;5.00;;;;;;;;;;5062875;28;20445;-68
2021/05/03 09:32:33;;;;;;;6.20;4.67;;;;;;;;;;5062110;28;20429;-67
2021/05/03 09:34:59;;;;;;;5.00;4.40;;;;;;;;;;5059644;28;20457;-67
2021/05/03 09:37:30;;;;;;;6.10;4.53;;;;;;;;;;5061162;28;20841;-68
2021/05/03 09:40:12;;;;;;;7.00;4.77;;;;;;;;;;5043613;28;20494;-67
2021/05/03 09:42:42;;;;;;;6.43;4.80;;;;;;;;;;5058496;28;20454;-68
2021/05/03 09:45:13;;;;;;;6.20;4.83;;;;;;;;;;5057048;28;20411;-68
2021/05/03 09:47:40;;;;;;;7.57;4.97;;;;;;;;;;5059251;28;20418;-67
2021/05/03 09:50:14;;;;;;;5.73;4.60;;;;;;;;;;5057995;28;20461;-67
2021/05/03 09:52:40;;;;;;;5.73;4.63;;;;;;;;;;5061548;28;20500;-67
2021/05/03 09:55:26;;;;;;;6.53;4.60;;;;;;;;;;5061292;28;20438;-68
2021/05/03 09:58:11;;;;;;;7.97;4.83;;;;;;;;;;5061551;28;20429;-67
2021/05/03 10:00:39;;;;;;;8.97;5.43;;;;;;;;;;5064204;28;20442;-67
2021/05/03 10:03:23;;;;;;;6.27;5.03;;;;;;;;;;5061156;28;23244;-67
2021/05/03 10:05:49;;;;;;;6.80;4.40;;;;;;;;;;5061047;28;20430;-67
2021/05/03 10:08:15;;;;;;;5.43;4.10;;;;;;;;;;5043395;28;20422;-68
2021/05/03 10:10:47;;;;;;;5.00;4.50;;;;;;;;;;5058419;28;20416;-67
2021/05/03 10:13:13;;;;;;;4.43;3.67;;;;;;;;;;5053194;28;20423;-68
2021/05/03 10:15:39;;;;;;;6.27;5.07;;;;;;;;;;5060273;28;20442;-67
2021/05/03 10:18:06;;;;;;;8.87;5.00;;;;;;;;;;5059685;28;20416;-67
2021/05/03 10:20:32;;;;;;;5.80;4.07;;;;;;;;;;5043659;28;20446;-68
2021/05/03 10:22:58;;;;;;;5.43;3.97;;;;;;;;;;5056563;28;20447;-68
2021/05/03 10:25:24;;;;;;;4.63;3.33;;;;;;;;;;5058975;28;20847;-67
2021/05/03 10:27:52;;;;;;;4.70;4.20;;;;;;;;;;5061640;28;20475;-67
2021/05/03 10:30:19;;;;;;;4.43;3.83;;;;;;;;;;5060834;28;20525;-67
2021/05/03 10:33:14;;;;;;;4.90;3.80;;;;;;;;;;5060196;28;20414;-68
2021/05/03 10:35:40;;;;;;;7.83;4.30;;;;;;;;;;5017484;28;20475;-74
2021/05/03 10:38:08;;;;;;;6.67;4.93;;;;;;;;;;5058669;28;20860;-68
2021/05/03 10:40:34;;;;;;;5.53;4.70;;;;;;;;;;5037566;28;20461;-68
2021/05/03 10:43:07;;;;;;;7.23;4.83;;;;;;;;;;5052550;28;20578;-68
2021/05/03 10:48:59;;;;;;;7.20;4.87;;;;;;;;;;5059782;28;20431;-68
2021/05/03 10:51:32;;;;;;;7.63;5.20;;;;;;;;;;5050173;28;21011;-68
2021/05/03 10:54:19;;;;;;;7.10;5.00;;;;;;;;;;5048396;28;20423;-68
2021/05/03 10:56:45;;;;;;;8.00;5.20;;;;;;;;;;5055521;28;20474;-67
2021/05/03 10:59:12;;;;;;;6.70;4.70;;;;;;;;;;5050608;28;20423;-68
2021/05/03 11:01:54;;;;;;;6.83;5.00;;;;;;;;;;5052271;28;20448;-68
2021/05/03 11:04:30;;;;;;;5.83;4.53;;;;;;;;;;5051068;28;20427;-68
2021/05/03 11:06:56;;;;;;;6.60;4.80;;;;;;;;;;5045486;28;20438;-68
2021/05/03 11:09:29;;;;;;;8.17;5.30;;;;;;;;;;5051792;28;20426;-68
2021/05/03 11:11:57;;;;;;;6.27;4.70;;;;;;;;;;5047286;28;20417;-68
2021/05/03 11:14:23;;;;;;;7.17;5.87;;;;;;;;;;5044340;28;20916;-67
2021/05/03 11:16:49;;;;;;;5.63;4.73;;;;;;;;;;5051273;28;20463;-68
2021/05/03 11:22:05;;;;;;;5.53;4.57;;;;;;;;;;5051958;28;20836;-68
2021/05/03 11:24:37;;;;;;;7.60;5.90;;;;;;;;;;5051167;28;20436;-67
2021/05/03 11:32:09;;;;;;;5.43;4.53;;;;;;;;;;5052371;28;20431;-68
2021/05/03 11:34:45;;;;;;;6.53;4.70;;;;;;;;;;5047054;28;20435;-68
2021/05/03 11:37:25;;;;;;;7.23;5.47;;;;;;;;;;5052678;28;20940;-68
2021/05/03 11:40:27;;;;;;;7.50;5.30;;;;;;;;;;5051805;28;20525;-68
2021/05/03 11:43:01;;;;;;;8.27;5.60;;;;;;;;;;5048621;28;21034;-68
2021/05/03 11:45:30;;;;;;;7.10;5.50;;;;;;;;;;5049735;28;20527;-67
2021/05/03 11:47:58;;;;;;;7.10;5.07;;;;;;;;;;5050378;28;20454;-67
2021/05/03 11:50:26;;;;;;;5.83;4.53;;;;;;;;;;5051243;28;20439;-67
2021/05/03 11:52:52;;;;;;;5.77;4.60;;;;;;;;;;5052826;28;20787;-67
2021/05/03 11:55:19;;;;;;;6.40;5.10;;;;;;;;;;5045933;28;20438;-68
2021/05/03 11:57:47;;;;;;;6.13;5.00;;;;;;;;;;5052001;28;20458;-68
2021/05/03 12:00:14;;;;;;;6.67;4.90;;;;;;;;;;5050346;28;20621;-68
2021/05/03 12:02:40;;;;;;;9.43;5.43;;;;;;;;;;5045218;28;20455;-67
2021/05/03 12:05:13;;;;;;;7.20;5.40;;;;;;;;;;5043410;28;20927;-67
2021/05/03 12:07:39;;;;;;;7.97;4.80;;;;;;;;;;5045412;28;20441;-67
2021/05/03 12:10:05;;;;;;;7.70;5.17;;;;;;;;;;5049614;28;20786;-68
2021/05/03 12:12:36;;;;;;;5.97;4.63;;;;;;;;;;5038724;28;20790;-68
2021/05/03 12:15:03;;;;;;;5.83;4.20;;;;;;;;;;5051145;28;20438;-67
2021/05/03 12:17:30;;;;;;;6.00;4.80;;;;;;;;;;5050824;28;20445;-68
2021/05/03 12:19:58;;;;;;;5.40;4.40;;;;;;;;;;5049334;28;20425;-67
2021/05/03 12:22:24;;;;;;;5.83;4.80;;;;;;;;;;5051687;28;20456;-67
2021/05/03 12:24:54;;;;;;;6.30;4.53;;;;;;;;;;5051333;28;20458;-67
2021/05/03 12:27:20;;;;;;;5.87;4.30;;;;;;;;;;5050953;28;20944;-67
2021/05/03 12:29:47;;;;;;;5.80;4.33;;;;;;;;;;5044844;28;20424;-67
2021/05/03 12:32:14;;;;;;;8.63;3.83;;;;;;;;;;5045359;28;20432;-68
2021/05/03 12:34:42;;;;;;;6.00;4.00;;;;;;;;;;5050189;28;20427;-68
2021/05/03 12:37:08;;;;;;;4.67;4.00;;;;;;;;;;5049498;28;20499;-68
2021/05/03 12:39:35;;;;;;;6.83;4.27;;;;;;;;;;5051616;28;20457;-68
2021/05/03 12:42:14;;;;;;;4.50;3.70;;;;;;;;;;5057215;28;20456;-68
2021/05/03 12:44:44;;;;;;;4.60;3.83;;;;;;;;;;5054901;28;20477;-68
2021/05/03 12:47:28;;;;;;;4.70;3.90;;;;;;;;;;5052344;28;20432;-68
2021/05/03 12:49:56;;;;;;;6.83;4.33;;;;;;;;;;5050007;28;20791;-68
2021/05/03 12:52:29;;;;;;;4.40;3.37;;;;;;;;;;5054086;28;20424;-68
2021/05/03 12:58:07;;;;;;;5.37;3.93;;;;;;;;;;5022140;28;20524;-68
2021/05/03 13:00:45;;;;;;;4.17;2.90;;;;;;;;;;5054977;28;20458;-68
2021/05/03 13:03:17;;;;;;;4.43;3.40;;;;;;;;;;5055598;28;20794;-68
2021/05/03 13:06:04;;;;;;;4.53;3.30;;;;;;;;;;5055555;28;20437;-68
2021/05/03 13:11:34;;;;;;;6.80;3.77;;;;;;;;;;5053780;28;20421;-68
2021/05/03 13:28:07;;;;;;;6.43;3.50;;;;;;;;;;5046461;28;20473;-68
2021/05/03 13:30:36;;;;;;;4.70;3.50;;;;;;;;;;5051909;28;20927;-68
2021/05/03 13:33:03;;;;;;;4.03;2.83;;;;;;;;;;5044526;28;20835;-69
2021/05/03 13:35:29;;;;;;;2.93;2.57;;;;;;;;;;5045091;28;20811;-69
2021/05/03 13:37:55;;;;;;;6.20;2.73;;;;;;;;;;5045776;28;20505;-68
2021/05/03 13:40:22;;;;;;;6.30;3.10;;;;;;;;;;5046268;28;20432;-68
2021/05/03 13:42:51;;;;;;;6.60;3.23;;;;;;;;;;5045528;28;20446;-68
2021/05/03 13:45:18;;;;;;;4.43;2.33;;;;;;;;;;5045764;28;20476;-68
2021/05/03 13:47:44;;;;;;;3.93;2.70;;;;;;;;;;5042690;28;20985;-68
2021/05/03 13:50:10;;;;;;;6.10;2.50;;;;;;;;;;5044680;28;20429;-68
2021/05/03 13:52:37;;;;;;;3.10;2.70;;;;;;;;;;5042803;28;20438;-69
2021/05/03 13:55:03;;;;;;;4.40;2.70;;;;;;;;;;5026126;28;20773;-68
2021/05/03 13:57:29;;;;;;;4.37;2.33;;;;;;;;;;5043972;28;20973;-69
2021/05/03 13:59:55;;;;;;;12.40;3.30;;;;;;;;;;5044030;28;20815;-68
2021/05/03 14:02:21;;;;;;;5.77;3.80;;;;;;;;;;5043414;28;20515;-69
2021/05/03 14:04:47;;;;;;;8.67;3.90;;;;;;;;;;5039968;28;20419;-69
2021/05/03 14:07:14;;;;;;;5.70;3.63;;;;;;;;;;5045363;28;20796;-68
2021/05/03 14:09:40;;;;;;;4.13;3.50;;;;;;;;;;5048390;28;20476;-69
2021/05/03 14:12:06;;;;;;;4.30;3.90;;;;;;;;;;5048188;28;20429;-68
2021/05/03 14:14:34;;;;;;;3.70;2.60;;;;;;;;;;5041716;28;20415;-68
2021/05/03 14:17:07;;;;;;;4.40;3.33;;;;;;;;;;5045325;28;20458;-68
2021/05/03 14:19:36;;;;;;;6.50;4.30;;;;;;;;;;5046959;28;20771;-68
2021/05/03 14:22:02;;;;;;;4.03;3.60;;;;;;;;;;5048937;28;20460;-69
2021/05/03 14:24:28;;;;;;;3.70;2.90;;;;;;;;;;5042056;28;20429;-69
2021/05/03 14:26:55;;;;;;;4.13;2.90;;;;;;;;;;5052792;28;20443;-68
2021/05/03 14:31:52;;;;;;;7.00;3.90;;;;;;;;;;5044355;28;20444;-68
2021/05/03 14:34:21;;;;;;;5.05;3.10;;;;;;;;;;5043212;28;20932;-68
2021/05/03 14:36:49;;;;;;;3.37;3.00;;;;;;;;;;5042615;28;20665;-68
2021/05/03 14:39:15;;;;;;;6.00;3.80;;;;;;;;;;5045093;28;20870;-68
2021/05/03 14:41:41;;;;;;;4.47;3.30;;;;;;;;;;5047651;28;20917;-68
2021/05/03 14:44:09;;;;;;;4.87;2.80;;;;;;;;;;5044799;28;20504;-68
2021/05/03 14:46:38;;;;;;;4.73;3.83;;;;;;;;;;5041648;28;20457;-68
2021/05/03 14:54:39;;;;;;;5.77;3.80;;;;;;;;;;5045244;28;20492;-67
2021/05/03 14:57:04;;;;;;;3.90;3.30;;;;;;;;;;5043976;28;20476;-68
2021/05/03 14:59:31;;;;;;;6.03;3.50;;;;;;;;;;5042837;28;20418;-68
2021/05/03 15:01:57;;;;;;;5.17;3.43;;;;;;;;;;5042930;28;20977;-68
2021/05/03 15:04:24;;;;;;;4.13;2.87;;;;;;;;;;5045360;28;20468;-68
2021/05/03 15:06:52;;;;;;;4.60;2.87;;;;;;;;;;5043995;28;20455;-68
2021/05/03 15:09:22;;;;;;;3.30;2.53;;;;;;;;;;5044246;28;20425;-67
2021/05/03 15:11:52;;;;;;;4.60;3.50;;;;;;;;;;5044207;28;20444;-68
2021/05/03 15:19:43;;;;;;;3.80;2.87;;;;;;;;;;5051632;28;20826;-67
2021/05/03 15:22:09;;;;;;;4.40;3.30;;;;;;;;;;5046397;28;20458;-66
2021/05/03 15:24:35;;;;;;;4.00;3.20;;;;;;;;;;5042196;28;20513;-67
2021/05/03 15:35:05;;;;;;;4.13;2.40;;;;;;;;;;5040944;28;20486;-67
2021/05/03 15:37:31;;;;;;;3.70;2.70;;;;;;;;;;5043819;28;20567;-67
2021/05/03 15:39:57;;;;;;;4.00;3.00;;;;;;;;;;5039987;28;20803;-67
2021/05/03 15:42:23;;;;;;;3.00;2.37;;;;;;;;;;5045119;28;20463;-67
2021/05/03 15:44:53;;;;;;;3.60;2.20;;;;;;;;;;5042944;28;20437;-67
2021/05/03 15:47:19;;;;;;;4.60;2.67;;;;;;;;;;5046382;28;20849;-67
2021/05/03 15:49:46;;;;;;;5.30;2.80;;;;;;;;;;5024142;28;20422;-67